createdAt,value
2023-05-24T00:00:39.757Z,31.61
2023-05-24T00:03:07.641Z,38.36
2023-05-24T00:05:35.474Z,37.35
2023-05-24T00:08:03.364Z,33.18
2023-05-24T00:10:31.212Z,40.10
2023-05-24T00:13:00.377Z,43.74
2023-05-24T00:15:28.051Z,42.37
2023-05-24T00:17:56.067Z,33.87
2023-05-24T00:20:24.170Z,45.65
2023-05-24T00:22:51.813Z,39.76
2023-05-24T00:25:19.416Z,43.53
2023-05-24T00:27:47.062Z,34.00
2023-05-24T00:30:16.177Z,33.74
2023-05-24T00:32:43.961Z,33.58
2023-05-24T00:35:11.675Z,32.63
2023-05-24T00:37:39.303Z,40.23
2023-05-24T00:40:11.010Z,36.12
2023-05-24T00:42:38.749Z,34.50
2023-05-24T00:45:07.644Z,38.25
2023-05-24T00:47:36.983Z,36.99
2023-05-24T00:50:08.191Z,35.98
2023-05-24T00:52:36.961Z,37.21
2023-05-24T00:55:05.795Z,37.37
2023-05-24T00:57:35.606Z,32.54
2023-05-24T01:00:04.715Z,32.64
2023-05-24T01:02:32.624Z,36.90
2023-05-24T01:05:01.723Z,56.80
2023-05-24T01:07:41.494Z,54.17
2023-05-24T01:10:21.799Z,31.45
2023-05-24T01:12:59.308Z,29.00
2023-05-24T01:15:41.544Z,59.42
2023-05-24T01:18:16.921Z,37.35
2023-05-24T01:20:54.199Z,42.56
2023-05-24T01:23:44.664Z,32.75
2023-05-24T01:26:24.742Z,36.22
2023-05-24T01:28:54.578Z,28.84
2023-05-24T01:31:23.292Z,34.58
2023-05-24T01:33:51.037Z,38.93
2023-05-24T01:36:18.747Z,37.65
2023-05-24T01:38:48.797Z,38.49
2023-05-24T01:41:32.841Z,38.17
2023-05-24T01:44:15.762Z,42.58
2023-05-24T01:46:50.156Z,34.12
2023-05-24T01:49:26.084Z,33.60
2023-05-24T01:52:03.172Z,33.75
2023-05-24T01:54:37.304Z,38.05
2023-05-24T01:57:11.443Z,35.11
2023-05-24T01:59:45.852Z,37.21
2023-05-24T02:02:13.954Z,40.92
2023-05-24T02:04:43.207Z,39.09
2023-05-24T02:07:10.913Z,31.57
2023-05-24T02:09:39.263Z,33.04
2023-05-24T02:12:08.271Z,34.29
2023-05-24T02:14:35.917Z,37.07
2023-05-24T02:17:05.559Z,46.12
2023-05-24T02:19:33.368Z,34.68
2023-05-24T02:22:01.011Z,39.82
2023-05-24T02:24:28.972Z,33.71
2023-05-24T02:26:56.658Z,39.69
2023-05-24T02:29:24.467Z,43.77
2023-05-24T02:31:52.071Z,43.33
2023-05-24T02:34:21.255Z,28.94
2023-05-24T02:36:49.000Z,38.54
2023-05-24T02:39:16.768Z,38.90
2023-05-24T02:41:44.361Z,39.03
2023-05-24T02:44:11.978Z,42.74
2023-05-24T02:46:39.794Z,43.17
2023-05-24T02:49:07.628Z,42.66
2023-05-24T02:51:36.690Z,43.98
2023-05-24T02:54:04.656Z,42.81
2023-05-24T02:56:32.385Z,43.52
2023-05-24T02:59:00.512Z,42.58
2023-05-24T03:01:28.421Z,43.87
2023-05-24T03:03:56.209Z,42.03
2023-05-24T03:06:23.922Z,39.12
2023-05-24T03:08:52.908Z,44.27
2023-05-24T03:11:20.659Z,44.81
2023-05-24T03:14:00.272Z,44.78
2023-05-24T03:16:54.906Z,45.83
2023-05-24T03:19:24.627Z,42.06
2023-05-24T03:21:55.192Z,41.78
2023-05-24T03:24:24.266Z,32.47
2023-05-24T03:26:51.949Z,35.22
2023-05-24T03:29:19.550Z,43.81
2023-05-24T03:31:47.380Z,37.94
2023-05-24T03:34:15.098Z,29.06
2023-05-24T03:36:43.343Z,47.92
2023-05-24T03:39:11.011Z,23.47
2023-05-24T03:41:40.158Z,77.74
2023-05-24T03:44:07.814Z,40.51
2023-05-24T03:46:35.555Z,58.31
2023-05-24T03:49:03.170Z,41.30
2023-05-24T03:51:30.748Z,78.74
2023-05-24T03:53:58.656Z,76.69
2023-05-24T03:56:26.932Z,40.09
2023-05-24T03:58:56.016Z,29.44
2023-05-24T04:01:33.437Z,27.71
2023-05-24T04:04:03.631Z,39.45
2023-05-24T04:06:31.639Z,72.54
2023-05-24T04:09:00.454Z,43.50
2023-05-24T04:11:28.355Z,38.66
2023-05-24T04:13:58.395Z,43.42
2023-05-24T04:16:26.937Z,50.56
2023-05-24T04:18:56.351Z,40.81
2023-05-24T04:21:24.195Z,42.25
2023-05-24T04:23:51.841Z,40.85
2023-05-24T04:26:19.544Z,50.96
2023-05-24T04:28:47.261Z,51.22
2023-05-24T04:31:16.366Z,40.58
2023-05-24T04:33:44.270Z,39.61
2023-05-24T04:36:12.011Z,34.44
2023-05-24T04:38:40.377Z,37.84
2023-05-24T04:41:08.134Z,35.36
2023-05-24T04:43:35.815Z,38.83
2023-05-24T04:46:08.847Z,36.90
2023-05-24T04:48:39.929Z,42.73
2023-05-24T04:51:07.909Z,35.24
2023-05-24T04:53:35.670Z,43.08
2023-05-24T04:56:03.453Z,39.04
2023-05-24T04:58:31.215Z,38.03
2023-05-24T05:00:58.980Z,48.74
2023-05-24T05:03:26.752Z,80.90
2023-05-24T05:05:55.767Z,33.66
2023-05-24T05:08:23.502Z,31.63
2023-05-24T05:10:51.116Z,43.10
2023-05-24T05:13:18.959Z,37.10
2023-05-24T05:15:46.986Z,36.92
2023-05-24T05:18:14.705Z,36.23
2023-05-24T05:20:42.545Z,34.84
2023-05-24T05:23:11.720Z,32.64
2023-05-24T05:25:41.202Z,68.43
2023-05-24T05:28:09.135Z,43.37
2023-05-24T05:30:36.896Z,38.04
2023-05-24T05:33:04.839Z,37.42
2023-05-24T05:35:33.968Z,46.61
2023-05-24T05:38:01.916Z,31.52
2023-05-24T05:40:31.666Z,38.63
2023-05-24T05:43:00.722Z,35.13
2023-05-24T05:45:28.634Z,41.62
2023-05-24T05:47:56.373Z,63.91
2023-05-24T05:50:24.053Z,39.32
2023-05-24T05:52:52.289Z,38.70
2023-05-24T05:55:20.206Z,42.16
2023-05-24T05:57:49.723Z,44.04
2023-05-24T06:00:18.920Z,40.06
2023-05-24T06:02:47.215Z,45.92
2023-05-24T06:05:21.255Z,55.34
2023-05-24T06:07:49.417Z,52.86
2023-05-24T06:10:17.486Z,53.06
2023-05-24T06:12:46.710Z,54.40
2023-05-24T06:15:15.818Z,52.12
2023-05-24T06:17:43.512Z,66.76
2023-05-24T06:20:12.622Z,69.17
2023-05-24T06:22:40.843Z,45.13
2023-05-24T06:25:09.637Z,53.85
2023-05-24T06:27:37.264Z,48.42
2023-05-24T06:30:06.466Z,45.38
2023-05-24T06:32:35.660Z,46.35
2023-05-24T06:35:03.829Z,41.74
2023-05-24T06:37:31.896Z,39.12
2023-05-24T06:39:59.722Z,37.42
2023-05-24T06:42:27.431Z,47.79
2023-05-24T06:44:56.450Z,33.58
2023-05-24T06:47:24.248Z,34.05
2023-05-24T06:49:53.642Z,44.79
2023-05-24T06:52:21.265Z,52.82
2023-05-24T06:54:49.779Z,65.84
2023-05-24T06:57:17.664Z,34.25
2023-05-24T06:59:45.452Z,36.88
2023-05-24T07:02:14.067Z,46.35
2023-05-24T07:04:41.749Z,36.23
2023-05-24T07:07:10.778Z,36.92
2023-05-24T07:09:39.971Z,34.94
2023-05-24T07:12:09.303Z,43.38
2023-05-24T07:14:37.120Z,40.77
2023-05-24T07:17:04.805Z,48.93
2023-05-24T07:19:32.668Z,70.99
2023-05-24T07:22:00.351Z,49.21
2023-05-24T07:24:29.440Z,50.52
2023-05-24T07:26:57.203Z,39.87
2023-05-24T07:29:25.513Z,39.22
2023-05-24T07:31:55.001Z,45.87
2023-05-24T07:34:22.800Z,39.90
2023-05-24T07:36:50.425Z,41.10
2023-05-24T07:39:18.045Z,43.96
2023-05-24T07:41:47.627Z,41.00
2023-05-24T07:44:15.329Z,85.66
2023-05-24T07:46:43.195Z,40.31
2023-05-24T07:49:10.903Z,34.44
2023-05-24T07:51:38.823Z,34.43
2023-05-24T07:54:06.462Z,35.39
2023-05-24T07:56:34.045Z,29.87
2023-05-24T07:59:03.322Z,26.62
2023-05-24T08:01:31.533Z,36.35
2023-05-24T08:03:59.916Z,35.44
2023-05-24T08:06:31.458Z,38.39
2023-05-24T08:08:59.162Z,36.94
2023-05-24T08:11:27.057Z,37.84
2023-05-24T08:13:54.658Z,31.25
2023-05-24T08:16:24.011Z,46.50
2023-05-24T08:18:54.751Z,41.05
2023-05-24T08:21:23.198Z,38.03
2023-05-24T08:23:51.063Z,53.99
2023-05-24T08:26:18.685Z,96.39
2023-05-24T08:28:46.397Z,37.01
2023-05-24T08:31:14.221Z,41.42
2023-05-24T08:33:44.307Z,43.74
2023-05-24T08:36:11.973Z,52.66
2023-05-24T08:38:39.844Z,38.56
2023-05-24T08:41:07.784Z,39.52
2023-05-24T08:43:35.493Z,43.95
2023-05-24T08:46:05.227Z,37.96
2023-05-24T08:48:35.057Z,29.75
2023-05-24T08:51:07.056Z,33.47
2023-05-24T08:53:41.235Z,35.24
2023-05-24T08:56:09.262Z,43.49
2023-05-24T08:58:39.361Z,59.70
2023-05-24T09:01:07.811Z,37.65
2023-05-24T09:03:38.275Z,39.82
2023-05-24T09:06:10.200Z,36.00
2023-05-24T09:08:38.812Z,39.90
2023-05-24T09:11:08.121Z,41.39
2023-05-24T09:13:36.070Z,47.81
2023-05-24T09:16:07.762Z,48.53
2023-05-24T09:19:06.033Z,50.24
2023-05-24T09:21:40.793Z,54.93
2023-05-24T09:24:14.122Z,45.62
2023-05-24T09:26:44.605Z,48.44
2023-05-24T09:29:14.268Z,50.95
2023-05-24T09:31:42.856Z,43.96
2023-05-24T09:34:15.401Z,46.11
2023-05-24T09:36:48.373Z,46.77
2023-05-24T09:39:19.268Z,48.44
2023-05-24T09:41:53.113Z,42.55
2023-05-24T09:44:24.703Z,42.35
2023-05-24T09:46:52.398Z,36.83
2023-05-24T09:49:21.302Z,39.83
2023-05-24T09:51:52.337Z,42.79
2023-05-24T09:54:20.638Z,66.76
2023-05-24T09:56:48.699Z,34.34
2023-05-24T09:59:16.966Z,31.85
2023-05-24T10:01:45.694Z,30.51
2023-05-24T10:04:13.687Z,32.61
2023-05-24T10:06:44.095Z,36.85
2023-05-24T10:09:14.674Z,32.76
2023-05-24T10:11:45.265Z,33.11
2023-05-24T10:14:13.467Z,35.63
2023-05-24T10:16:43.660Z,39.37
2023-05-24T10:19:11.396Z,42.20
2023-05-24T10:21:43.910Z,45.62
2023-05-24T10:24:17.670Z,42.98
2023-05-24T10:26:47.749Z,48.52
2023-05-24T10:29:26.585Z,38.09
2023-05-24T10:31:55.840Z,42.84
2023-05-24T10:34:26.103Z,37.40
2023-05-24T10:36:55.570Z,29.06
2023-05-24T10:39:26.682Z,31.10
2023-05-24T10:41:56.559Z,45.66
2023-05-24T10:44:30.089Z,30.19
2023-05-24T10:47:12.121Z,34.03
2023-05-24T10:49:50.465Z,29.45
2023-05-24T10:52:19.089Z,30.77
2023-05-24T10:55:11.944Z,29.15
2023-05-24T10:57:40.316Z,26.37
2023-05-24T11:00:35.128Z,25.57
2023-05-24T11:03:09.166Z,28.50
2023-05-24T11:05:52.030Z,27.88
2023-05-24T11:08:32.396Z,27.35
2023-05-24T11:11:22.968Z,29.09
2023-05-24T11:13:56.647Z,27.32
2023-05-24T11:16:34.837Z,30.67
2023-05-24T11:19:12.193Z,28.17
2023-05-24T11:21:40.787Z,26.86
2023-05-24T11:24:08.656Z,34.48
2023-05-24T11:26:40.119Z,26.07
2023-05-24T11:29:08.694Z,25.12
2023-05-24T11:31:40.097Z,28.38
2023-05-24T11:34:10.472Z,26.95
2023-05-24T11:36:38.465Z,25.54
2023-05-24T11:39:08.021Z,27.72
2023-05-24T11:41:41.518Z,30.24
2023-05-24T11:44:11.072Z,25.64
2023-05-24T11:46:43.058Z,42.61
2023-05-24T11:49:13.680Z,16.15
2023-05-24T11:51:44.975Z,14.22
2023-05-24T11:54:12.661Z,14.38
2023-05-24T11:56:44.213Z,13.69
2023-05-24T11:59:16.068Z,12.97
2023-05-24T12:01:44.142Z,117.14
2023-05-24T12:04:12.233Z,95.62
2023-05-24T12:06:45.022Z,16.81
2023-05-24T12:09:20.390Z,18.46
2023-05-24T12:11:50.820Z,19.32
2023-05-24T12:17:22.383Z,21.19
2023-05-24T12:19:51.952Z,20.88
2023-05-24T12:22:26.672Z,25.90
2023-05-24T12:24:54.341Z,31.71
2023-05-24T12:27:27.245Z,16.78
2023-05-24T12:29:54.934Z,27.65
2023-05-24T12:32:23.013Z,23.30
2023-05-24T12:34:50.846Z,23.62
2023-05-24T12:37:18.488Z,20.15
2023-05-24T12:39:46.214Z,24.47
2023-05-24T12:42:14.385Z,23.19
2023-05-24T12:44:43.623Z,37.39
2023-05-24T12:47:12.284Z,36.36
2023-05-24T12:49:40.081Z,32.78
2023-05-24T12:52:12.413Z,31.50
2023-05-24T12:54:40.341Z,28.13
2023-05-24T12:57:08.076Z,31.43
2023-05-24T12:59:35.683Z,28.74
2023-05-24T13:02:04.855Z,34.77
2023-05-24T13:04:32.688Z,28.28
2023-05-24T13:07:01.412Z,30.07
2023-05-24T13:09:29.044Z,27.04
2023-05-24T13:11:56.690Z,28.27
2023-05-24T13:14:24.510Z,29.28
2023-05-24T13:16:52.317Z,26.75
2023-05-24T13:19:21.435Z,24.93
2023-05-24T13:21:49.152Z,26.01
2023-05-24T13:24:16.956Z,27.57
2023-05-24T13:26:45.406Z,24.12
2023-05-24T13:31:44.199Z,28.51
2023-05-24T13:34:12.579Z,26.56
2023-05-24T13:36:45.520Z,24.36
2023-05-24T13:39:16.468Z,26.23
2023-05-24T13:41:44.994Z,28.66
2023-05-24T13:44:13.438Z,30.95
2023-05-24T13:46:42.830Z,55.43
2023-05-24T13:49:11.277Z,32.49
2023-05-24T13:51:41.167Z,35.16
2023-05-24T13:54:10.128Z,33.70
2023-05-24T13:56:40.193Z,32.41
2023-05-24T13:59:08.083Z,32.44
2023-05-24T14:01:35.992Z,35.82
2023-05-24T14:04:05.264Z,33.48
2023-05-24T14:06:34.355Z,34.52
2023-05-24T14:09:04.248Z,33.12
2023-05-24T14:11:32.020Z,32.39
2023-05-24T14:16:31.139Z,30.60
2023-05-24T14:18:58.964Z,30.57
2023-05-24T14:21:27.039Z,29.09
2023-05-24T14:23:55.762Z,25.71
2023-05-24T14:26:24.802Z,32.57
2023-05-24T14:28:55.282Z,34.11
2023-05-24T14:31:26.545Z,34.83
2023-05-24T14:33:54.238Z,33.40
2023-05-24T14:36:21.895Z,30.91
2023-05-24T14:38:49.628Z,29.47
2023-05-24T14:41:17.747Z,25.31
2023-05-24T14:43:46.877Z,29.85
2023-05-24T14:46:14.647Z,26.72
2023-05-24T14:48:42.466Z,24.15
2023-05-24T14:51:10.113Z,30.91
2023-05-24T14:53:37.773Z,29.11
2023-05-24T14:56:05.601Z,23.29
2023-05-24T14:58:33.324Z,27.41
2023-05-24T15:01:02.436Z,25.42
2023-05-24T15:03:30.817Z,28.44
2023-05-24T15:06:09.131Z,29.19
2023-05-24T15:08:36.963Z,28.45
2023-05-24T15:11:06.084Z,29.04
2023-05-24T15:13:33.684Z,27.35
2023-05-24T15:16:03.740Z,25.74
2023-05-24T15:18:31.979Z,26.40
2023-05-24T15:20:59.719Z,29.29
2023-05-24T15:23:27.701Z,30.75
2023-05-24T15:25:55.366Z,27.39
2023-05-24T15:28:26.040Z,27.11
2023-05-24T15:30:54.584Z,27.25
2023-05-24T15:33:23.743Z,28.82
2023-05-24T15:35:51.544Z,29.08
2023-05-24T15:38:19.242Z,24.18
2023-05-24T15:40:49.236Z,27.38
2023-05-24T15:43:18.692Z,28.92
2023-05-24T15:45:46.879Z,26.59
2023-05-24T15:48:14.760Z,24.69
2023-05-24T15:51:11.581Z,27.86
2023-05-24T15:53:31.895Z,27.93
2023-05-24T15:55:59.518Z,33.58
2023-05-24T15:58:27.229Z,29.71
2023-05-24T16:00:54.948Z,26.06
2023-05-24T16:03:22.772Z,31.12
2023-05-24T16:05:52.076Z,24.84
2023-05-24T16:08:20.251Z,22.22
2023-05-24T16:10:48.214Z,24.81
2023-05-24T16:13:17.423Z,32.31
2023-05-24T16:15:45.408Z,31.55
2023-05-24T16:18:13.393Z,40.62
2023-05-24T16:20:41.338Z,46.58
2023-05-24T16:23:10.658Z,38.50
2023-05-24T16:25:38.741Z,46.95
2023-05-24T16:28:06.490Z,35.67
2023-05-24T16:30:36.698Z,28.57
2023-05-24T16:33:07.252Z,28.25
2023-05-24T16:35:35.029Z,34.82
2023-05-24T16:38:03.416Z,28.75
2023-05-24T16:40:32.689Z,33.38
2023-05-24T16:43:00.525Z,42.80
2023-05-24T16:45:28.349Z,37.75
2023-05-24T16:47:56.085Z,33.89
2023-05-24T16:50:24.125Z,35.68
2023-05-24T16:52:51.948Z,33.49
2023-05-24T16:55:19.556Z,32.32
2023-05-24T16:57:48.746Z,37.12
2023-05-24T17:00:17.280Z,34.33
2023-05-24T17:02:45.115Z,37.18
2023-05-24T17:05:12.922Z,36.22
2023-05-24T17:07:40.952Z,40.70
2023-05-24T17:10:09.297Z,35.75
2023-05-24T17:12:36.924Z,38.02
2023-05-24T17:15:15.930Z,37.43
2023-05-24T17:17:43.773Z,37.79
2023-05-24T17:20:13.476Z,36.16
2023-05-24T17:22:41.442Z,40.58
2023-05-24T17:25:09.469Z,37.56
2023-05-24T17:27:37.156Z,34.52
2023-05-24T17:30:07.955Z,37.71
2023-05-24T17:32:35.544Z,36.94
2023-05-24T17:35:03.468Z,38.59
2023-05-24T17:37:32.775Z,40.47
2023-05-24T17:40:00.377Z,41.72
2023-05-24T17:42:27.999Z,44.13
2023-05-24T17:44:55.617Z,41.64
2023-05-24T17:47:24.617Z,42.13
2023-05-24T17:49:52.306Z,46.70
2023-05-24T17:52:21.353Z,48.70
2023-05-24T17:54:49.058Z,40.20
2023-05-24T17:57:17.028Z,41.24
2023-05-24T17:59:44.693Z,43.31
2023-05-24T18:02:12.371Z,39.81
2023-05-24T18:04:41.698Z,41.42
2023-05-24T18:07:09.418Z,44.07
2023-05-24T18:09:37.321Z,40.05
2023-05-24T18:12:06.043Z,43.78
2023-05-24T18:14:33.741Z,41.12
2023-05-24T18:17:04.960Z,40.18
2023-05-24T18:19:32.694Z,46.18
2023-05-24T18:22:01.975Z,50.23
2023-05-24T18:24:29.612Z,51.41
2023-05-24T18:26:57.547Z,51.12
2023-05-24T18:29:26.212Z,74.13
2023-05-24T18:31:53.867Z,92.39
2023-05-24T18:34:21.544Z,84.74
2023-05-24T18:36:49.357Z,94.79
2023-05-24T18:39:18.340Z,81.74
2023-05-24T18:41:46.139Z,84.27
2023-05-24T18:44:14.157Z,79.90
2023-05-24T18:46:41.880Z,84.63
2023-05-24T18:49:09.581Z,80.25
2023-05-24T18:51:37.305Z,63.68
2023-05-24T18:54:05.066Z,86.84
2023-05-24T18:56:34.106Z,117.26
2023-05-24T18:59:01.810Z,97.25
2023-05-24T19:01:29.566Z,77.43
2023-05-24T19:03:59.731Z,72.45
2023-05-24T19:06:31.226Z,102.76
2023-05-24T19:08:59.339Z,108.82
2023-05-24T19:11:27.481Z,247.42
2023-05-24T19:14:00.153Z,225.51
2023-05-24T19:16:28.082Z,66.90
2023-05-24T19:18:56.820Z,110.95
2023-05-24T19:21:24.475Z,86.86
2023-05-24T19:23:52.139Z,76.28
2023-05-24T19:26:20.045Z,89.52
2023-05-24T19:28:47.799Z,136.76
2023-05-24T19:31:16.945Z,147.94
2023-05-24T19:33:58.657Z,138.23
2023-05-24T19:36:29.791Z,124.86
2023-05-24T19:38:58.574Z,147.26
2023-05-24T19:41:26.427Z,143.38
2023-05-24T19:43:56.320Z,114.38
2023-05-24T19:46:28.459Z,108.91
2023-05-24T19:48:56.195Z,127.65
2023-05-24T19:51:24.205Z,109.62
2023-05-24T19:53:51.973Z,106.67
2023-05-24T19:56:20.085Z,117.96
2023-05-24T19:58:47.715Z,114.91
2023-05-24T20:01:15.627Z,102.82
2023-05-24T20:03:47.009Z,123.30
2023-05-24T20:06:15.443Z,126.63
2023-05-24T20:08:44.045Z,102.34
2023-05-24T20:11:11.742Z,111.55
2023-05-24T20:13:39.444Z,116.84
2023-05-24T20:16:07.437Z,96.75
2023-05-24T20:18:35.521Z,125.23
2023-05-24T20:21:04.733Z,125.89
2023-05-24T20:23:32.590Z,108.74
2023-05-24T20:26:02.993Z,159.18
2023-05-24T20:28:32.017Z,136.58
2023-05-24T20:31:00.100Z,121.41
2023-05-24T20:33:27.909Z,153.27
2023-05-24T20:35:55.885Z,121.56
2023-05-24T20:38:24.963Z,122.02
2023-05-24T20:40:52.692Z,100.50
2023-05-24T20:43:20.837Z,116.41
2023-05-24T20:45:48.509Z,119.28
2023-05-24T20:48:16.331Z,126.41
2023-05-24T20:50:46.717Z,172.72
2023-05-24T20:53:15.970Z,146.95
2023-05-24T20:55:45.172Z,132.04
2023-05-24T20:58:14.130Z,253.53
2023-05-24T21:00:42.018Z,125.82
2023-05-24T21:03:09.918Z,170.15
2023-05-24T21:05:37.672Z,106.14
2023-05-24T21:08:05.559Z,101.27
2023-05-24T21:10:33.302Z,104.51
2023-05-24T21:13:02.619Z,104.80
2023-05-24T21:15:30.504Z,140.19
2023-05-24T21:17:58.267Z,102.30
2023-05-24T21:20:26.091Z,97.86
2023-05-24T21:22:53.836Z,102.96
2023-05-24T21:25:21.550Z,108.77
2023-05-24T21:27:49.228Z,148.14
2023-05-24T21:30:18.290Z,114.76
2023-05-24T21:32:46.005Z,203.23
2023-05-24T21:35:13.863Z,141.95
2023-05-24T21:37:41.492Z,135.33
2023-05-24T21:40:09.924Z,138.18
2023-05-24T21:42:37.619Z,142.70
2023-05-24T21:45:06.506Z,189.48
2023-05-24T21:47:35.681Z,160.23
2023-05-24T21:50:04.063Z,227.55
2023-05-24T21:52:31.676Z,142.72
2023-05-24T21:54:59.310Z,150.88
2023-05-24T21:57:26.990Z,178.16
2023-05-24T21:59:56.033Z,135.92
2023-05-24T22:02:23.783Z,158.81
2023-05-24T22:04:52.770Z,222.98
2023-05-24T22:07:22.962Z,144.13
2023-05-24T22:09:50.587Z,156.61
2023-05-24T22:12:18.529Z,122.43
2023-05-24T22:14:46.131Z,209.08
2023-05-24T22:17:14.085Z,177.79
2023-05-24T22:19:42.023Z,147.52
2023-05-24T22:22:11.302Z,169.17
2023-05-24T22:24:39.018Z,200.56
2023-05-24T22:27:06.673Z,142.48
2023-05-24T22:29:34.361Z,164.58
2023-05-24T22:32:03.141Z,163.97
2023-05-24T22:34:31.833Z,192.57
2023-05-24T22:37:00.238Z,157.68
2023-05-24T22:39:29.332Z,142.73
2023-05-24T22:41:57.057Z,145.34
2023-05-24T22:44:24.834Z,156.40
2023-05-24T22:46:52.825Z,157.83
2023-05-24T22:49:21.005Z,169.71
2023-05-24T22:51:49.574Z,150.92
2023-05-24T22:54:17.431Z,173.00
2023-05-24T22:56:46.657Z,134.91
2023-05-24T22:59:14.885Z,168.84
2023-05-24T23:01:42.808Z,167.14
2023-05-24T23:04:19.879Z,136.05
2023-05-24T23:06:49.141Z,153.49
2023-05-24T23:09:16.772Z,126.73
2023-05-24T23:11:45.919Z,128.34
2023-05-24T23:14:13.647Z,128.57
2023-05-24T23:16:41.544Z,129.98
2023-05-24T23:19:09.179Z,140.12
2023-05-24T23:21:36.784Z,147.56
2023-05-24T23:24:05.048Z,145.93
2023-05-24T23:26:32.647Z,152.35
2023-05-24T23:29:08.105Z,192.89
2023-05-24T23:31:35.889Z,130.80
2023-05-24T23:34:04.873Z,128.55
2023-05-24T23:36:33.346Z,131.11
2023-05-24T23:39:01.284Z,131.45
2023-05-24T23:41:28.917Z,141.75
2023-05-24T23:43:56.769Z,141.95
2023-05-24T23:46:25.803Z,204.45
2023-05-24T23:48:53.742Z,160.39
2023-05-24T23:51:21.464Z,137.56
2023-05-24T23:53:49.101Z,139.52
2023-05-24T23:56:16.800Z,146.17
2023-05-24T23:58:44.460Z,154.18
